Horquilla, Argentina
Current Conditions -  °F | °C
As of 6:00 AM on Saturday 20 Dec 2014 (Local Time) from SARE Reporting Station
Clear Clear  
Wind Chill: 75°   Ceiling: Unl
Heat Index: 75°   Visibility: 6mi
Dew Point: 73°   Wind: 3mph
Humidity: 94%   Direction: 50°NE
Pressure: 29.53"   Gusts: NA
Location:  27.53°S, 60.18°W
Report Text: SARE 200900Z 05003KT CAVOK 24/23 Q1000
Loading
Personal Weather Stations






























Interactive Weather Map New forecast layout! Learn more

10-Day Weather Forecast

Advertisements
Track Severe Weather on mobile